createdAt,value
2023-04-02T00:00:18.507Z,99513.97
2023-04-02T00:03:22.523Z,99510.34
2023-04-02T00:06:35.077Z,99518.28
2023-04-02T00:09:38.548Z,99515.94
2023-04-02T00:13:19.193Z,99521.72
2023-04-02T00:16:25.059Z,99518.13
2023-04-02T00:19:36.772Z,99521.47
2023-04-02T00:22:44.820Z,99505.16
2023-04-02T00:25:47.993Z,99506.16
2023-04-02T00:28:52.445Z,99501.84
2023-04-02T00:31:59.182Z,99507.72
2023-04-02T00:35:02.781Z,99506.22
2023-04-02T00:38:06.346Z,99507.41
2023-04-02T00:41:16.664Z,99504.81
2023-04-02T00:44:21.892Z,99501.88
2023-04-02T00:47:32.055Z,99505.91
2023-04-02T00:50:41.316Z,99501.31
2023-04-02T00:53:47.539Z,99498.59
2023-04-02T00:56:55.157Z,99493.00
2023-04-02T01:00:16.010Z,99493.22
2023-04-02T01:03:23.086Z,99495.56
2023-04-02T01:06:37.395Z,99486.28
2023-04-02T01:10:15.640Z,99482.03
2023-04-02T01:13:25.233Z,99484.78
2023-04-02T01:16:31.427Z,99489.78
2023-04-02T01:19:52.879Z,99489.34
2023-04-02T01:23:32.712Z,99486.84
2023-04-02T01:26:58.081Z,99489.56
2023-04-02T01:30:05.258Z,99485.78
2023-04-02T01:33:08.499Z,99480.31
2023-04-02T01:36:26.412Z,99483.34
2023-04-02T01:39:57.038Z,99483.16
2023-04-02T01:43:48.261Z,99487.06
2023-04-02T01:46:51.564Z,99482.50
2023-04-02T01:50:17.546Z,99489.91
2023-04-02T01:53:23.173Z,99495.69
2023-04-02T01:56:28.110Z,99485.16
2023-04-02T01:59:33.377Z,99486.31
2023-04-02T02:02:39.935Z,99487.31
2023-04-02T02:05:44.092Z,99483.72
2023-04-02T02:08:48.910Z,99480.81
2023-04-02T02:11:52.574Z,99488.44
2023-04-02T02:14:55.740Z,99491.69
2023-04-02T02:18:05.532Z,99490.06
2023-04-02T02:21:10.712Z,99495.19
2023-04-02T02:24:32.556Z,99494.31
2023-04-02T02:28:18.301Z,99492.22
2023-04-02T02:31:29.747Z,99490.59
2023-04-02T02:34:40.250Z,99490.38
2023-04-02T02:37:48.025Z,99499.16
2023-04-02T02:40:56.842Z,99497.13
2023-04-02T02:44:06.675Z,99504.38
2023-04-02T02:47:25.401Z,99508.00
2023-04-02T02:50:31.898Z,99506.78
2023-04-02T02:53:49.888Z,99512.03
2023-04-02T02:56:59.635Z,99517.47
2023-04-02T03:00:08.022Z,99513.34
2023-04-02T03:03:17.089Z,99519.94
2023-04-02T03:06:21.762Z,99515.72
2023-04-02T03:09:42.084Z,99521.16
2023-04-02T03:12:53.744Z,99518.34
2023-04-02T03:16:20.846Z,99515.63
2023-04-02T03:20:16.148Z,99524.94
2023-04-02T03:23:32.611Z,99518.56
2023-04-02T03:26:42.429Z,99518.47
2023-04-02T03:30:02.222Z,99517.22
2023-04-02T03:33:30.539Z,99512.56
2023-04-02T03:36:59.011Z,99511.16
2023-04-02T03:40:13.129Z,99513.44
2023-04-02T03:43:26.240Z,99519.53
2023-04-02T03:46:37.751Z,99529.19
2023-04-02T03:49:56.429Z,99519.22
2023-04-02T03:53:01.814Z,99528.09
2023-04-02T03:56:07.728Z,99523.09
2023-04-02T03:59:36.037Z,99533.97
2023-04-02T04:02:50.112Z,99532.38
2023-04-02T04:06:07.136Z,99535.06
2023-04-02T04:09:20.986Z,99539.34
2023-04-02T04:12:24.233Z,99539.88
2023-04-02T04:15:35.165Z,99545.41
2023-04-02T04:18:52.010Z,99542.94
2023-04-02T04:22:10.150Z,99547.25
2023-04-02T04:25:35.154Z,99549.34
2023-04-02T04:29:12.744Z,99550.94
2023-04-02T04:32:34.530Z,99552.47
2023-04-02T04:35:50.182Z,99548.97
2023-04-02T04:38:59.587Z,99547.47
2023-04-02T04:42:07.579Z,99556.25
2023-04-02T04:45:28.931Z,99551.06
2023-04-02T04:49:08.587Z,99560.75
2023-04-02T04:52:24.537Z,99561.09
2023-04-02T04:55:35.321Z,99570.75
2023-04-02T04:58:49.047Z,99570.66
2023-04-02T05:02:05.980Z,99570.09
2023-04-02T05:05:25.193Z,99568.22
2023-04-02T05:08:35.903Z,99572.59
2023-04-02T05:11:47.524Z,99573.16
2023-04-02T05:15:03.001Z,99578.47
2023-04-02T05:18:33.120Z,99579.25
2023-04-02T05:21:47.405Z,99583.91
2023-04-02T05:25:21.900Z,99577.81
2023-04-02T05:28:37.131Z,99580.22
2023-04-02T05:32:11.093Z,99584.91
2023-04-02T05:35:21.250Z,99587.41
2023-04-02T05:38:30.497Z,99586.53
2023-04-02T05:41:46.052Z,99587.19
2023-04-02T05:45:28.114Z,99593.09
2023-04-02T05:48:43.504Z,99598.00
2023-04-02T05:51:54.131Z,99600.72
2023-04-02T05:55:48.248Z,99602.25
2023-04-02T05:58:58.284Z,99614.44
2023-04-02T06:02:31.063Z,99616.59
2023-04-02T06:05:40.252Z,99619.44
2023-04-02T06:08:52.278Z,99629.78
2023-04-02T06:12:24.711Z,99635.25
2023-04-02T06:15:28.044Z,99637.28
2023-04-02T06:18:37.324Z,99640.78
2023-04-02T06:21:45.443Z,99642.88
2023-04-02T06:25:02.512Z,99645.16
2023-04-02T06:28:17.347Z,99643.66
2023-04-02T06:31:42.661Z,99654.84
2023-04-02T06:34:47.988Z,99645.34
2023-04-02T06:37:56.302Z,99654.41
2023-04-02T06:41:12.923Z,99664.53
2023-04-02T06:44:31.862Z,99659.50
2023-04-02T06:48:04.279Z,99661.22
2023-04-02T06:51:23.243Z,99672.81
2023-04-02T06:54:26.452Z,99668.25
2023-04-02T06:57:36.046Z,99670.38
2023-04-02T07:00:43.840Z,99671.78
2023-04-02T07:03:52.741Z,99683.63
2023-04-02T07:07:07.093Z,99667.00
2023-04-02T07:10:14.229Z,99674.03
2023-04-02T07:13:25.049Z,99684.06
2023-04-02T07:16:33.744Z,99678.41
2023-04-02T07:19:37.012Z,99677.59
2023-04-02T07:22:40.895Z,99684.69
2023-04-02T07:25:44.590Z,99696.59
2023-04-02T07:28:47.778Z,99697.75
2023-04-02T07:31:53.019Z,99701.28
2023-04-02T07:34:56.184Z,99707.63
2023-04-02T07:37:59.112Z,99704.66
2023-04-02T07:41:06.440Z,99709.78
2023-04-02T07:44:11.074Z,99707.91
2023-04-02T07:47:13.947Z,99711.47
2023-04-02T07:50:18.017Z,99711.53
2023-04-02T07:53:34.633Z,99713.38
2023-04-02T07:56:38.694Z,99715.09
2023-04-02T07:59:41.707Z,99726.94
2023-04-02T08:02:45.593Z,99725.53
2023-04-02T08:05:54.438Z,99728.59
2023-04-02T08:08:58.649Z,99738.19
2023-04-02T08:12:02.263Z,99739.69
2023-04-02T08:15:07.115Z,99747.69
2023-04-02T08:18:11.703Z,99737.75
2023-04-02T08:21:16.538Z,99750.59
2023-04-02T08:24:21.185Z,99750.94
2023-04-02T08:27:26.077Z,99741.06
2023-04-02T08:30:29.530Z,99749.66
2023-04-02T08:33:32.792Z,99747.84
2023-04-02T08:36:41.724Z,99747.66
2023-04-02T08:39:45.128Z,99748.84
2023-04-02T08:43:29.496Z,99755.19
2023-04-02T08:46:36.402Z,99747.91
2023-04-02T08:49:49.573Z,99751.66
2023-04-02T08:52:53.171Z,99750.75
2023-04-02T08:56:18.120Z,99757.16
2023-04-02T08:59:33.732Z,99752.25
2023-04-02T09:02:41.967Z,99751.25
2023-04-02T09:05:47.330Z,99757.41
2023-04-02T09:08:53.601Z,99754.31
2023-04-02T09:12:04.411Z,99765.03
2023-04-02T09:15:10.668Z,99763.47
2023-04-02T09:18:19.301Z,99764.22
2023-04-02T09:21:22.638Z,99768.53
2023-04-02T09:24:26.216Z,99770.75
2023-04-02T09:27:32.435Z,99779.22
2023-04-02T09:30:43.510Z,99770.03
2023-04-02T09:33:50.069Z,99775.09
2023-04-02T09:36:53.142Z,99774.94
2023-04-02T09:40:29.708Z,99771.41
2023-04-02T09:43:38.154Z,99771.00
2023-04-02T09:46:49.784Z,99770.56
2023-04-02T09:49:53.007Z,99770.41
2023-04-02T09:52:56.583Z,99777.75
2023-04-02T09:56:26.708Z,99774.84
2023-04-02T09:59:30.064Z,99780.13
2023-04-02T10:02:33.591Z,99785.16
2023-04-02T10:05:40.967Z,99789.03
2023-04-02T10:08:45.813Z,99790.91
2023-04-02T10:11:51.029Z,99793.06
2023-04-02T10:14:56.511Z,99797.56
2023-04-02T10:18:12.211Z,99796.38
2023-04-02T10:21:23.792Z,99792.47
2023-04-02T10:24:28.975Z,99786.56
2023-04-02T10:27:45.368Z,99789.16
2023-04-02T10:31:00.707Z,99788.25
2023-04-02T10:34:17.639Z,99797.50
2023-04-02T10:37:32.844Z,99787.78
2023-04-02T10:40:39.882Z,99785.38
2023-04-02T10:44:12.737Z,99783.22
2023-04-02T10:47:27.334Z,99785.81
2023-04-02T10:50:44.978Z,99776.41
2023-04-02T10:53:54.848Z,99782.19
2023-04-02T10:57:07.861Z,99778.78
2023-04-02T11:00:11.579Z,99775.16
2023-04-02T11:03:42.478Z,99778.22
2023-04-02T11:07:03.544Z,99792.19
2023-04-02T11:10:20.066Z,99785.72
2023-04-02T11:13:31.585Z,99786.00
2023-04-02T11:16:37.751Z,99787.59
2023-04-02T11:19:44.414Z,99793.06
2023-04-02T11:23:13.873Z,99794.47
2023-04-02T11:26:42.998Z,99795.34
2023-04-02T11:30:22.686Z,99801.69
2023-04-02T11:33:48.134Z,99806.69
2023-04-02T11:36:55.562Z,99804.84
2023-04-02T11:40:06.205Z,99800.72
2023-04-02T11:43:42.065Z,99796.16
2023-04-02T11:46:45.855Z,99786.28
2023-04-02T11:49:55.970Z,99777.06
2023-04-02T11:53:03.259Z,99778.59
2023-04-02T11:56:07.941Z,99778.03
2023-04-02T11:59:36.583Z,99775.06
2023-04-02T12:02:49.471Z,99763.28
2023-04-02T12:06:06.439Z,99771.41
2023-04-02T12:09:31.031Z,99772.81
2023-04-02T12:12:40.557Z,99785.06
2023-04-02T12:15:49.057Z,99791.56
2023-04-02T12:18:54.666Z,99784.59
2023-04-02T12:21:59.578Z,99792.94
2023-04-02T12:25:05.323Z,99795.31
2023-04-02T12:28:11.580Z,99798.19
2023-04-02T12:31:19.678Z,99802.41
2023-04-02T12:34:26.286Z,99796.53
2023-04-02T12:37:30.863Z,99785.13
2023-04-02T12:40:34.334Z,99789.84
2023-04-02T12:43:38.280Z,99796.75
2023-04-02T12:46:42.609Z,99788.91
2023-04-02T12:49:47.363Z,99803.06
2023-04-02T12:52:55.153Z,99797.72
2023-04-02T12:55:58.709Z,99800.00
2023-04-02T12:59:02.032Z,99791.19
2023-04-02T13:02:31.093Z,99783.19
2023-04-02T13:09:03.412Z,99782.44
2023-04-02T13:12:21.098Z,99775.31
2023-04-02T13:15:30.809Z,99782.91
2023-04-02T13:18:37.298Z,99780.50
2023-04-02T13:21:40.986Z,99780.19
2023-04-02T13:24:44.547Z,99785.75
2023-04-02T13:27:48.041Z,99767.84
2023-04-02T13:30:51.312Z,99767.22
2023-04-02T13:33:54.831Z,99765.44
2023-04-02T13:36:58.361Z,99769.88
2023-04-02T13:40:02.294Z,99777.75
2023-04-02T13:43:08.213Z,99775.47
2023-04-02T13:46:23.849Z,99773.03
2023-04-02T13:49:27.984Z,99776.06
2023-04-02T13:52:31.261Z,99779.13
2023-04-02T13:55:41.649Z,99770.00
2023-04-02T13:58:46.029Z,99786.41
2023-04-02T14:01:52.585Z,99788.38
2023-04-02T14:05:15.929Z,99788.47
2023-04-02T14:08:50.814Z,99797.47
2023-04-02T14:11:59.980Z,99807.72
2023-04-02T14:15:30.722Z,99815.31
2023-04-02T14:19:08.336Z,99795.66
2023-04-02T14:22:26.523Z,99809.47
2023-04-02T14:25:44.500Z,99801.41
2023-04-02T14:29:16.612Z,99796.28
2023-04-02T14:32:31.530Z,99788.91
2023-04-02T14:35:43.612Z,99796.66
2023-04-02T14:39:08.610Z,99809.41
2023-04-02T14:42:31.387Z,99792.56
2023-04-02T14:45:58.803Z,99799.75
2023-04-02T14:49:15.571Z,99793.25
2023-04-02T14:52:22.947Z,99802.56
2023-04-02T14:55:47.074Z,99799.50
2023-04-02T14:59:03.389Z,99798.66
2023-04-02T15:02:33.076Z,99805.66
2023-04-02T15:05:43.040Z,99802.16
2023-04-02T15:09:08.299Z,99800.50
2023-04-02T15:12:33.882Z,99797.81
2023-04-02T15:15:41.572Z,99807.56
2023-04-02T15:18:44.735Z,99807.34
2023-04-02T15:22:21.790Z,99812.75
2023-04-02T15:25:40.399Z,99814.91
2023-04-02T15:28:55.088Z,99813.72
2023-04-02T15:32:21.160Z,99829.84
2023-04-02T15:35:41.719Z,99828.94
2023-04-02T15:38:51.312Z,99832.81
2023-04-02T15:42:09.749Z,99825.06
2023-04-02T15:45:12.765Z,99829.00
2023-04-02T15:48:23.542Z,99833.25
2023-04-02T15:51:55.586Z,99832.56
2023-04-02T15:55:22.871Z,99837.38
2023-04-02T15:58:32.361Z,99852.22
2023-04-02T16:01:40.933Z,99856.38
2023-04-02T16:05:03.881Z,99866.88
2023-04-02T16:08:25.288Z,99863.84
2023-04-02T16:11:28.739Z,99878.97
2023-04-02T16:14:33.783Z,99886.03
2023-04-02T16:17:51.607Z,99898.09
2023-04-02T16:20:57.349Z,99901.44
2023-04-02T16:24:00.560Z,99908.66
2023-04-02T16:27:15.072Z,99903.25
2023-04-02T16:30:34.553Z,99912.59
2023-04-02T16:34:15.734Z,99901.53
2023-04-02T16:37:45.016Z,99911.84
2023-04-02T16:41:26.322Z,99922.03
2023-04-02T16:45:15.414Z,99920.69
2023-04-02T16:48:43.451Z,99924.75
2023-04-02T16:52:13.661Z,99924.00
2023-04-02T16:55:52.326Z,99927.47
2023-04-02T16:59:27.723Z,99942.34
2023-04-02T17:03:15.097Z,99949.09
2023-04-02T17:06:18.290Z,99952.41
2023-04-02T17:09:50.092Z,99963.03
2023-04-02T17:13:28.203Z,99964.84
2023-04-02T17:16:41.040Z,99971.25
2023-04-02T17:19:44.938Z,99984.06
2023-04-02T17:22:49.041Z,99993.25
2023-04-02T17:26:00.833Z,99997.03
2023-04-02T17:29:09.556Z,100000.75
2023-04-02T17:32:22.368Z,100004.06
2023-04-02T17:35:55.444Z,100010.78
2023-04-02T17:38:58.712Z,100022.03
2023-04-02T17:42:29.069Z,100028.03
2023-04-02T17:45:53.355Z,100033.28
2023-04-02T17:49:36.988Z,100037.38
2023-04-02T17:53:08.542Z,100039.34
2023-04-02T17:56:24.087Z,100048.94
2023-04-02T18:00:06.264Z,100052.97
2023-04-02T18:03:49.603Z,100060.75
2023-04-02T18:07:11.081Z,100077.63
2023-04-02T18:10:52.941Z,100076.34
2023-04-02T18:14:00.697Z,100076.88
2023-04-02T18:17:26.204Z,100084.00
2023-04-02T18:20:55.797Z,100087.19
2023-04-02T18:24:14.121Z,100087.69
2023-04-02T18:27:26.530Z,100097.38
2023-04-02T18:30:54.070Z,100097.47
2023-04-02T18:34:20.006Z,100101.06
2023-04-02T18:37:49.750Z,100103.03
2023-04-02T18:41:17.739Z,100112.00
2023-04-02T18:44:29.278Z,100123.59
2023-04-02T18:48:07.154Z,100107.34
2023-04-02T18:51:18.781Z,100139.88
2023-04-02T18:54:36.043Z,100131.75
2023-04-02T18:57:42.498Z,100129.50
2023-04-02T19:00:46.789Z,100137.59
2023-04-02T19:04:02.733Z,100127.22
2023-04-02T19:07:16.072Z,100130.31
2023-04-02T19:10:35.448Z,100151.91
2023-04-02T19:13:41.794Z,100165.84
2023-04-02T19:17:04.700Z,100185.13
2023-04-02T19:20:11.105Z,100203.25
2023-04-02T19:23:14.518Z,100202.47
2023-04-02T19:26:26.831Z,100219.44
2023-04-02T19:29:42.615Z,100220.59
2023-04-02T19:32:46.138Z,100222.56
2023-04-02T19:35:58.900Z,100223.72
2023-04-02T19:39:11.628Z,100212.53
2023-04-02T19:42:44.256Z,100219.84
2023-04-02T19:45:49.292Z,100212.13
2023-04-02T19:49:12.398Z,100229.09
2023-04-02T19:52:16.384Z,100229.06
2023-04-02T19:55:19.827Z,100239.09
2023-04-02T19:58:33.207Z,100256.44
2023-04-02T20:01:36.647Z,100266.84
2023-04-02T20:04:39.910Z,100274.94
2023-04-02T20:07:42.821Z,100273.75
2023-04-02T20:10:47.874Z,100275.28
2023-04-02T20:13:52.948Z,100277.59
2023-04-02T20:16:56.192Z,100288.72
2023-04-02T20:19:59.552Z,100285.63
2023-04-02T20:23:02.673Z,100293.41
2023-04-02T20:26:06.833Z,100282.16
2023-04-02T20:29:10.044Z,100263.66
2023-04-02T20:32:13.756Z,100295.59
2023-04-02T20:35:17.500Z,100289.81
2023-04-02T20:38:20.788Z,100284.81
2023-04-02T20:41:24.228Z,100264.78
2023-04-02T20:44:28.604Z,100291.28
2023-04-02T20:47:32.351Z,100303.56
2023-04-02T20:50:35.731Z,100315.09
2023-04-02T20:53:39.261Z,100320.91
2023-04-02T20:56:45.476Z,100332.44
2023-04-02T20:59:48.929Z,100342.03
2023-04-02T21:02:52.254Z,100355.16
2023-04-02T21:05:55.556Z,100343.19
2023-04-02T21:08:59.306Z,100350.13
2023-04-02T21:12:02.610Z,100354.78
2023-04-02T21:15:06.773Z,100348.97
2023-04-02T21:18:09.856Z,100354.38
2023-04-02T21:21:14.142Z,100368.59
2023-04-02T21:24:17.479Z,100360.88
2023-04-02T21:27:23.768Z,100362.41
2023-04-02T21:30:27.113Z,100374.31
2023-04-02T21:33:32.761Z,100369.72
2023-04-02T21:36:39.615Z,100369.22
2023-04-02T21:39:42.922Z,100347.66
2023-04-02T21:42:46.132Z,100322.72
2023-04-02T21:45:49.067Z,100305.69
2023-04-02T21:48:54.260Z,100303.75
2023-04-02T21:51:57.310Z,100288.34
2023-04-02T21:55:00.249Z,100294.47
2023-04-02T21:58:03.506Z,100293.63
2023-04-02T22:01:11.162Z,100297.91
2023-04-02T22:04:20.838Z,100322.50
2023-04-02T22:07:23.792Z,100330.97
2023-04-02T22:10:27.187Z,100331.72
2023-04-02T22:13:30.322Z,100351.31
2023-04-02T22:16:35.172Z,100344.78
2023-04-02T22:19:38.384Z,100350.94
2023-04-02T22:22:41.843Z,100343.63
2023-04-02T22:25:44.930Z,100347.06
2023-04-02T22:28:48.116Z,100362.53
2023-04-02T22:31:51.294Z,100350.16
2023-04-02T22:34:54.554Z,100375.47
2023-04-02T22:37:57.614Z,100380.16
2023-04-02T22:41:03.910Z,100387.88
2023-04-02T22:44:07.264Z,100373.66
2023-04-02T22:47:10.790Z,100383.97
2023-04-02T22:50:13.862Z,100382.41
2023-04-02T22:53:17.098Z,100383.88
2023-04-02T22:56:23.113Z,100393.53
2023-04-02T22:59:26.894Z,100395.47
2023-04-02T23:02:32.009Z,100389.47
2023-04-02T23:05:35.077Z,100392.53
2023-04-02T23:08:39.036Z,100394.47
2023-04-02T23:11:43.016Z,100396.06
2023-04-02T23:14:46.311Z,100394.94
2023-04-02T23:17:49.328Z,100401.84
2023-04-02T23:20:54.656Z,100389.56
2023-04-02T23:23:58.301Z,100386.91
2023-04-02T23:27:01.580Z,100391.13
2023-04-02T23:30:05.614Z,100391.09
2023-04-02T23:33:09.292Z,100388.44
2023-04-02T23:36:30.870Z,100389.88
2023-04-02T23:39:34.569Z,100395.31
2023-04-02T23:42:37.768Z,100392.63
2023-04-02T23:45:41.615Z,100407.63
2023-04-02T23:48:46.074Z,100387.25
2023-04-02T23:51:49.621Z,100391.13
2023-04-02T23:54:52.542Z,100398.00
2023-04-02T23:57:56.012Z,100384.91
